Time;durP1;ratioP1;P1;durP2;ratioP2;P2;SDS_P1;SDS_P2;PMS_P1;PMS_P2;Temp;Humidity;BMP_temperature;BMP_pressure;BME280_temperature;BME280_humidity;BME280_pressure;Samples;Min_cycle;Max_cycle;Signal;HPM_P1;HPM_P2
2021/12/05 00:21:12;;;;;;;116.38;104.65;;;5.00;98.40;;;;;;5042175;28;20253;-75
2021/12/05 00:23:41;;;;;;;115.07;103.30;;;5.00;98.50;;;;;;5033865;28;20049;-75
2021/12/05 00:26:13;;;;;;;115.13;103.05;;;5.00;98.50;;;;;;5033584;28;20050;-75
2021/12/05 00:31:46;;;;;;;116.45;104.50;;;4.90;98.50;;;;;;5032862;28;20054;-75
2021/12/05 00:40:41;;;;;;;114.25;102.00;;;4.90;98.60;;;;;;5011856;28;20057;-76
2021/12/05 00:43:41;;;;;;;113.97;102.30;;;4.90;98.60;;;;;;5050236;28;20050;-76
2021/12/05 00:46:28;;;;;;;112.38;100.80;;;4.90;98.60;;;;;;5049266;28;20095;-75
2021/12/05 00:49:16;;;;;;;113.80;102.32;;;4.80;98.60;;;;;;5033042;28;20057;-75
2021/12/05 00:55:05;;;;;;;114.65;102.55;;;4.80;98.70;;;;;;4995881;28;20053;-76
2021/12/05 00:57:47;;;;;;;114.55;102.60;;;4.90;99.00;;;;;;5049952;28;20057;-75
2021/12/05 01:00:44;;;;;;;114.57;102.90;;;4.90;98.80;;;;;;5049699;28;20057;-76
2021/12/05 01:03:30;;;;;;;114.57;102.40;;;4.90;98.90;;;;;;5032893;28;20127;-76
2021/12/05 01:06:36;;;;;;;114.85;102.80;;;4.90;98.90;;;;;;5032977;28;20057;-75
2021/12/05 01:09:29;;;;;;;113.93;102.28;;;4.90;98.90;;;;;;5033144;28;20145;-75
2021/12/05 01:12:17;;;;;;;112.78;101.35;;;4.90;98.90;;;;;;5034143;28;20084;-76
2021/12/05 01:17:54;;;;;;;115.22;103.22;;;4.90;98.80;;;;;;5007655;28;20056;-76
2021/12/05 01:20:24;;;;;;;113.72;102.22;;;4.90;98.80;;;;;;5032235;28;20120;-75
2021/12/05 01:22:59;;;;;;;112.93;101.10;;;4.80;98.80;;;;;;5032684;28;20057;-75
2021/12/05 01:25:39;;;;;;;114.32;102.75;;;4.90;98.80;;;;;;5032469;28;20101;-76
2021/12/05 01:28:14;;;;;;;114.15;102.50;;;4.90;98.80;;;;;;5032695;28;20439;-76
2021/12/05 01:30:48;;;;;;;113.75;102.07;;;4.90;98.90;;;;;;5033792;28;20080;-76
2021/12/05 01:33:22;;;;;;;113.68;101.78;;;4.90;98.80;;;;;;5032948;28;20061;-76
2021/12/05 01:36:01;;;;;;;114.78;102.70;;;4.90;98.80;;;;;;5032504;28;20060;-76
2021/12/05 01:38:48;;;;;;;113.95;102.50;;;4.90;98.80;;;;;;5032407;28;20097;-75
2021/12/05 01:47:24;;;;;;;112.65;100.93;;;4.90;98.90;;;;;;5011737;28;20061;-75
2021/12/05 01:52:58;;;;;;;113.75;102.05;;;5.00;99.00;;;;;;5032552;28;20046;-76
2021/12/05 01:56:03;;;;;;;114.43;102.57;;;4.90;99.00;;;;;;5032052;28;20041;-75
2021/12/05 01:58:53;;;;;;;113.25;101.53;;;4.90;98.90;;;;;;5016010;28;20041;-75
2021/12/05 02:01:46;;;;;;;114.55;102.53;;;5.00;99.00;;;;;;5032091;28;20043;-75
2021/12/05 02:09:55;;;;;;;113.47;101.60;;;5.00;99.00;;;;;;5035378;28;20057;-75
2021/12/05 02:15:08;;;;;;;116.55;104.53;;;5.00;99.00;;;;;;5041375;28;20054;-75
2021/12/05 02:35:14;;;;;;;118.25;105.75;;;5.10;99.00;;;;;;5018443;28;20133;-75
2021/12/05 02:38:06;;;;;;;121.13;108.50;;;5.00;99.00;;;;;;5035777;28;20120;-75
2021/12/05 02:40:46;;;;;;;120.22;107.80;;;5.00;99.00;;;;;;5018954;28;20145;-76
2021/12/05 02:43:19;;;;;;;120.43;107.53;;;5.00;99.00;;;;;;5035163;28;20054;-75
2021/12/05 02:45:47;;;;;;;121.25;108.03;;;5.10;99.10;;;;;;5034958;28;20048;-75
2021/12/05 02:48:15;;;;;;;121.18;108.07;;;5.00;99.00;;;;;;5035355;28;20052;-75
2021/12/05 02:50:42;;;;;;;119.30;106.68;;;5.00;99.10;;;;;;5018688;28;20114;-75
2021/12/05 02:53:18;;;;;;;122.45;109.38;;;5.00;99.00;;;;;;5035143;28;20056;-76
2021/12/05 02:55:47;;;;;;;123.22;110.00;;;5.10;99.10;;;;;;5034838;28;20046;-75
2021/12/05 02:58:29;;;;;;;121.55;108.60;;;5.10;99.00;;;;;;5051990;28;20054;-76
2021/12/05 03:01:09;;;;;;;123.47;110.53;;;5.10;99.00;;;;;;5051943;28;20127;-75
2021/12/05 03:03:37;;;;;;;122.55;109.82;;;5.10;99.00;;;;;;5034925;28;20053;-75
2021/12/05 03:06:14;;;;;;;123.57;110.10;;;5.10;99.00;;;;;;5034747;28;20058;-75
2021/12/05 03:08:42;;;;;;;;;;;5.10;98.90;;;;;;5018754;28;20101;-75
2021/12/05 03:11:10;;;;;;;122.40;109.60;;;5.10;98.80;;;;;;5036117;28;19971;-75
2021/12/05 03:13:39;;;;;;;122.93;109.40;;;5.10;98.80;;;;;;5034878;28;20924;-75
2021/12/05 03:16:09;;;;;;;123.72;110.70;;;5.10;98.80;;;;;;5034588;28;20049;-75
2021/12/05 03:18:37;;;;;;;122.05;108.72;;;5.10;98.90;;;;;;5034609;28;20041;-75
2021/12/05 03:21:07;;;;;;;121.63;108.63;;;5.10;98.80;;;;;;5035045;28;20164;-75
2021/12/05 03:23:36;;;;;;;121.78;108.93;;;5.10;98.80;;;;;;5071157;28;20099;-75
2021/12/05 03:26:07;;;;;;;121.00;108.65;;;5.10;98.90;;;;;;5054377;28;20100;-75
2021/12/05 03:28:35;;;;;;;121.82;108.88;;;5.10;98.80;;;;;;5037794;28;20494;-75
2021/12/05 03:31:03;;;;;;;121.35;108.25;;;5.10;98.80;;;;;;5037762;28;20781;-75
2021/12/05 03:33:31;;;;;;;122.35;109.43;;;5.10;98.80;;;;;;5037850;28;20054;-75
2021/12/05 03:35:59;;;;;;;121.57;108.75;;;5.10;98.80;;;;;;5037638;28;20065;-75
2021/12/05 03:42:26;;;;;;;120.57;107.78;;;5.10;98.80;;;;;;5054338;28;20057;-75
2021/12/05 03:44:53;;;;;;;122.28;108.85;;;5.00;98.70;;;;;;5036983;28;20498;-75
2021/12/05 03:47:21;;;;;;;117.78;105.65;;;5.00;98.70;;;;;;5053955;28;20053;-75
2021/12/05 03:49:49;;;;;;;118.95;106.50;;;5.00;98.80;;;;;;5037342;28;20048;-75
2021/12/05 03:52:17;;;;;;;120.00;107.45;;;5.00;98.80;;;;;;5037353;28;20054;-75
2021/12/05 03:54:45;;;;;;;120.75;108.00;;;5.00;98.80;;;;;;5053915;28;20175;-75
2021/12/05 03:57:12;;;;;;;119.00;106.35;;;5.00;98.80;;;;;;5053822;28;20053;-75
2021/12/05 03:59:44;;;;;;;119.45;106.95;;;5.00;98.80;;;;;;5037571;28;20511;-75
2021/12/05 04:02:12;;;;;;;117.75;105.57;;;5.00;98.80;;;;;;5037169;28;20056;-75
2021/12/05 04:04:41;;;;;;;118.78;106.43;;;5.00;98.80;;;;;;5037013;28;20816;-75
2021/12/05 04:07:10;;;;;;;117.97;105.60;;;5.00;98.80;;;;;;5037134;28;20041;-75
2021/12/05 04:09:37;;;;;;;119.68;107.07;;;4.90;98.70;;;;;;5036949;28;20051;-75
2021/12/05 04:12:05;;;;;;;119.38;106.63;;;4.90;98.70;;;;;;5037245;28;20701;-75
2021/12/05 04:14:40;;;;;;;118.65;106.10;;;5.00;98.60;;;;;;5036923;28;20045;-75
2021/12/05 04:17:14;;;;;;;117.82;105.03;;;5.00;98.50;;;;;;5037107;28;20054;-75
2021/12/05 04:19:42;;;;;;;117.18;104.97;;;5.00;98.50;;;;;;5053533;28;20053;-75
2021/12/05 04:26:22;;;;;;;118.25;105.45;;;4.90;98.50;;;;;;5056249;28;20045;-75
2021/12/05 04:28:49;;;;;;;117.65;105.25;;;4.90;98.40;;;;;;5036679;28;20048;-74
2021/12/05 04:31:20;;;;;;;118.72;106.10;;;4.90;98.50;;;;;;5033467;28;20485;-75
2021/12/05 04:33:49;;;;;;;117.63;105.30;;;4.90;98.50;;;;;;5034477;28;20046;-75
2021/12/05 04:36:17;;;;;;;116.72;104.32;;;4.90;98.40;;;;;;5047565;28;20128;-75
2021/12/05 04:38:45;;;;;;;117.85;105.30;;;4.90;98.30;;;;;;5037023;28;20053;-75
2021/12/05 04:41:12;;;;;;;115.45;103.30;;;4.90;98.30;;;;;;5058429;28;20060;-77
2021/12/05 04:43:39;;;;;;;114.82;102.40;;;4.80;98.30;;;;;;5036497;28;20049;-75
2021/12/05 04:46:10;;;;;;;117.15;104.88;;;4.80;98.30;;;;;;5052915;28;20092;-75
2021/12/05 04:48:39;;;;;;;116.28;104.05;;;4.80;98.30;;;;;;5054305;28;20045;-75
2021/12/05 04:51:08;;;;;;;116.20;103.75;;;4.80;98.40;;;;;;5052842;28;20061;-75
2021/12/05 04:53:35;;;;;;;114.75;102.43;;;4.80;98.30;;;;;;5053128;28;20112;-75
2021/12/05 04:56:03;;;;;;;116.78;104.25;;;4.80;98.30;;;;;;5034979;28;20049;-75
2021/12/05 04:58:31;;;;;;;115.63;103.18;;;4.80;98.20;;;;;;5036436;28;20046;-75
2021/12/05 05:00:59;;;;;;;116.07;104.03;;;4.80;98.20;;;;;;5036381;28;20045;-75
2021/12/05 05:03:27;;;;;;;116.75;104.10;;;4.70;98.20;;;;;;5053128;28;20060;-75
2021/12/05 05:06:02;;;;;;;114.82;102.88;;;4.70;98.20;;;;;;5052786;28;20547;-75
2021/12/05 05:08:31;;;;;;;114.80;102.65;;;4.70;98.10;;;;;;5052838;28;20045;-75
2021/12/05 05:10:59;;;;;;;115.97;103.70;;;4.70;98.20;;;;;;5052965;28;20057;-75
2021/12/05 05:13:26;;;;;;;114.32;102.60;;;4.60;98.20;;;;;;5052548;28;20056;-75
2021/12/05 05:15:54;;;;;;;115.97;103.75;;;4.60;98.20;;;;;;5052656;28;20060;-75
2021/12/05 05:18:23;;;;;;;116.25;104.47;;;4.60;98.20;;;;;;5053105;28;20054;-75
2021/12/05 05:20:57;;;;;;;115.68;103.40;;;4.60;98.20;;;;;;5052843;28;20057;-75
2021/12/05 05:23:41;;;;;;;115.20;103.07;;;4.50;98.20;;;;;;5052941;28;20126;-75
2021/12/05 05:40:09;;;;;;;115.57;103.40;;;4.40;98.10;;;;;;5052254;28;20474;-75
2021/12/05 05:48:30;;;;;;;115.95;103.53;;;4.40;98.00;;;;;;5049113;28;20153;-75
2021/12/05 05:50:58;;;;;;;114.10;101.90;;;4.40;97.90;;;;;;5035753;28;20468;-75
2021/12/05 05:53:25;;;;;;;114.28;100.82;;;4.30;97.90;;;;;;5052627;28;20084;-75
2021/12/05 05:55:54;;;;;;;114.35;101.95;;;4.30;97.90;;;;;;5053542;28;20161;-75
2021/12/05 05:58:27;;;;;;;115.07;102.80;;;4.30;98.00;;;;;;5053496;28;20059;-75
2021/12/05 06:01:03;;;;;;;116.43;104.13;;;4.20;98.00;;;;;;5051904;28;20049;-75
2021/12/05 06:03:31;;;;;;;116.18;103.63;;;4.30;98.10;;;;;;5053104;28;20061;-75
2021/12/05 06:06:01;;;;;;;114.53;102.13;;;4.20;98.00;;;;;;5053595;28;20558;-75
2021/12/05 06:08:31;;;;;;;114.00;101.75;;;4.20;98.00;;;;;;5055728;28;20053;-75
2021/12/05 06:11:00;;;;;;;113.45;101.85;;;4.20;98.00;;;;;;5055695;28;20128;-75
2021/12/05 06:13:30;;;;;;;115.00;102.93;;;4.30;98.00;;;;;;5057085;28;20127;-75
2021/12/05 06:15:58;;;;;;;114.18;101.93;;;4.20;98.00;;;;;;5056793;28;20131;-75
2021/12/05 06:18:25;;;;;;;114.25;101.85;;;4.20;98.00;;;;;;5055562;28;20045;-75
2021/12/05 06:20:53;;;;;;;114.47;102.15;;;4.20;98.00;;;;;;5055160;28;20054;-75
2021/12/05 06:23:21;;;;;;;115.43;102.70;;;4.20;98.00;;;;;;5021012;28;20050;-75
2021/12/05 06:25:50;;;;;;;114.68;102.75;;;4.20;98.00;;;;;;5035475;28;20153;-75
2021/12/05 06:28:23;;;;;;;114.38;101.93;;;4.20;98.00;;;;;;5035272;28;20049;-75
2021/12/05 06:30:56;;;;;;;113.32;101.13;;;4.20;98.00;;;;;;5034822;28;20478;-75
2021/12/05 06:39:18;;;;;;;114.60;102.32;;;4.20;98.10;;;;;;5035561;28;20061;-75
2021/12/05 06:47:16;;;;;;;115.78;103.38;;;4.20;98.10;;;;;;5034989;28;20101;-75
2021/12/05 06:49:44;;;;;;;113.95;101.68;;;4.20;98.10;;;;;;5035207;28;20049;-75
2021/12/05 06:52:12;;;;;;;117.57;104.43;;;4.20;98.10;;;;;;5041446;28;20142;-75
2021/12/05 06:55:04;;;;;;;115.63;103.63;;;4.20;98.10;;;;;;5058061;28;20049;-77
2021/12/05 06:57:32;;;;;;;115.65;103.20;;;4.20;98.20;;;;;;5056335;28;20054;-75
2021/12/05 06:59:59;;;;;;;113.65;101.60;;;4.20;98.20;;;;;;5054936;28;20053;-75
2021/12/05 07:02:27;;;;;;;;;;;4.20;98.20;;;;;;5054741;28;20045;-75
2021/12/05 07:05:12;;;;;;;117.05;104.63;;;4.20;98.30;;;;;;5054805;28;19963;-75
2021/12/05 07:07:41;;;;;;;115.78;103.45;;;4.30;98.30;;;;;;5054931;28;20049;-75
2021/12/05 07:10:11;;;;;;;117.15;105.05;;;4.20;98.30;;;;;;5055713;28;20053;-75
2021/12/05 07:15:35;;;;;;;118.65;105.82;;;4.30;98.30;;;;;;5027716;28;20058;-75
2021/12/05 07:21:02;;;;;;;116.78;104.53;;;4.20;98.50;;;;;;5054481;28;20080;-75
2021/12/05 07:23:44;;;;;;;117.07;104.90;;;4.20;98.40;;;;;;5054120;28;20045;-75
2021/12/05 07:26:15;;;;;;;118.07;105.97;;;4.30;98.40;;;;;;5037412;28;20065;-75
2021/12/05 07:42:42;;;;;;;116.05;103.97;;;4.40;98.60;;;;;;4996534;28;20054;-75
2021/12/05 07:45:12;;;;;;;117.50;105.05;;;4.40;98.60;;;;;;5012425;28;20057;-75
2021/12/05 07:47:44;;;;;;;117.88;105.40;;;4.40;98.60;;;;;;5031909;28;20053;-75
2021/12/05 07:50:13;;;;;;;116.78;104.28;;;4.40;98.60;;;;;;5053581;28;20550;-75
2021/12/05 07:52:44;;;;;;;117.22;105.15;;;4.40;98.60;;;;;;5053618;28;20065;-75
2021/12/05 07:55:18;;;;;;;117.30;105.10;;;4.40;98.60;;;;;;5054737;28;20054;-75
2021/12/05 07:58:02;;;;;;;117.88;105.45;;;4.50;98.70;;;;;;5053649;28;20045;-75
2021/12/05 08:00:36;;;;;;;119.13;106.60;;;4.50;98.70;;;;;;5052490;28;20061;-75
2021/12/05 08:16:48;;;;;;;117.57;105.78;;;4.50;98.70;;;;;;5051624;28;20486;-74
2021/12/05 08:19:15;;;;;;;120.88;108.13;;;4.60;98.80;;;;;;5051220;28;20140;-74
2021/12/05 08:21:45;;;;;;;117.68;105.45;;;4.60;98.80;;;;;;5034645;28;20052;-74
2021/12/05 08:24:12;;;;;;;120.75;108.45;;;4.60;98.80;;;;;;5051579;28;20056;-74
2021/12/05 08:26:39;;;;;;;118.30;106.20;;;4.60;98.80;;;;;;5033773;28;20073;-74
2021/12/05 08:29:10;;;;;;;117.97;105.88;;;4.60;98.80;;;;;;5051993;28;20057;-74
2021/12/05 08:31:59;;;;;;;117.80;105.50;;;4.60;98.80;;;;;;5056485;28;20054;-76
2021/12/05 08:37:36;;;;;;;120.53;108.07;;;4.70;98.80;;;;;;5015553;28;20132;-77
2021/12/05 08:45:55;;;;;;;119.13;107.03;;;4.70;98.80;;;;;;5050559;28;20045;-73
2021/12/05 09:21:53;;;;;;;117.20;105.20;;;5.00;98.90;;;;;;5051188;28;20046;-76
2021/12/05 09:30:28;;;;;;;118.03;106.13;;;5.10;98.90;;;;;;4993046;28;20531;-76
2021/12/05 10:09:15;;;;;;;118.32;106.20;;;5.50;98.90;;;;;;5049560;28;20053;-76
2021/12/05 10:11:47;;;;;;;117.28;105.78;;;5.50;98.90;;;;;;5049427;28;20100;-76
2021/12/05 10:14:25;;;;;;;117.43;105.80;;;5.50;98.90;;;;;;5047437;28;20057;-77
2021/12/05 10:17:23;;;;;;;115.28;103.97;;;5.50;98.90;;;;;;5045209;28;20058;-79
2021/12/05 10:33:45;;;;;;;116.85;105.35;;;5.60;98.90;;;;;;5050098;28;20053;-77
2021/12/05 10:36:20;;;;;;;118.70;106.80;;;5.60;98.90;;;;;;5049856;28;20053;-77
2021/12/05 10:38:52;;;;;;;116.30;104.97;;;5.60;98.90;;;;;;5048314;28;20052;-77
2021/12/05 10:41:46;;;;;;;116.57;104.85;;;5.60;98.90;;;;;;5052110;28;20053;-77
2021/12/05 10:44:14;;;;;;;115.72;104.20;;;5.60;98.90;;;;;;5047151;28;20582;-79
2021/12/05 10:46:46;;;;;;;114.93;103.45;;;5.60;98.90;;;;;;5034501;28;20046;-79
2021/12/05 10:49:16;;;;;;;114.13;102.80;;;5.60;98.90;;;;;;5051118;28;20816;-78
2021/12/05 10:51:47;;;;;;;115.00;103.82;;;5.60;98.90;;;;;;5051194;28;20045;-77
2021/12/05 10:54:17;;;;;;;116.47;105.15;;;5.60;98.90;;;;;;5052579;28;20068;-78
2021/12/05 10:56:47;;;;;;;118.95;107.30;;;5.70;98.90;;;;;;5054327;28;20046;-80
2021/12/05 10:59:17;;;;;;;115.90;104.53;;;5.70;98.90;;;;;;5037863;28;20423;-79
2021/12/05 11:01:46;;;;;;;115.35;104.15;;;5.70;99.00;;;;;;5055682;28;20077;-78
2021/12/05 11:04:18;;;;;;;117.15;105.60;;;5.70;99.00;;;;;;5037784;28;20053;-79
2021/12/05 11:06:50;;;;;;;116.15;104.93;;;5.80;99.00;;;;;;5037341;28;20061;-79
2021/12/05 11:09:21;;;;;;;115.07;103.75;;;5.80;99.00;;;;;;5054180;28;20076;-79
2021/12/05 11:11:51;;;;;;;114.45;102.93;;;5.80;99.00;;;;;;5054241;28;20084;-77
2021/12/05 11:14:21;;;;;;;117.20;105.70;;;5.90;99.00;;;;;;5052979;28;20077;-79
2021/12/05 11:17:07;;;;;;;116.30;104.75;;;5.90;98.90;;;;;;5053234;28;20140;-77
2021/12/05 11:19:40;;;;;;;117.97;106.57;;;5.90;98.90;;;;;;5050722;28;20869;-77
2021/12/05 11:22:16;;;;;;;115.43;104.20;;;6.00;98.90;;;;;;5036640;28;20045;-78
2021/12/05 11:24:44;;;;;;;;;;;6.00;98.90;;;;;;5053903;28;20056;-78
2021/12/05 11:27:38;;;;;;;116.53;104.72;;;6.00;98.80;;;;;;5053926;28;20810;-79
2021/12/05 11:30:13;;;;;;;114.22;103.18;;;6.00;98.80;;;;;;5048144;28;20937;-80
2021/12/05 11:32:46;;;;;;;114.65;103.25;;;5.90;98.70;;;;;;5054204;28;20050;-78
2021/12/05 11:35:21;;;;;;;115.53;104.22;;;5.90;98.70;;;;;;5037222;28;20193;-76
2021/12/05 11:37:50;;;;;;;116.00;104.88;;;5.90;98.80;;;;;;5053617;28;20793;-80
2021/12/05 11:40:18;;;;;;;115.32;103.90;;;6.00;98.80;;;;;;5037244;28;20124;-77
2021/12/05 11:42:52;;;;;;;115.47;104.22;;;6.00;98.70;;;;;;5053868;28;20132;-78
2021/12/05 11:45:19;;;;;;;114.63;103.38;;;6.00;98.70;;;;;;5053798;28;20136;-78
2021/12/05 11:47:47;;;;;;;114.90;103.30;;;6.00;98.80;;;;;;5053718;28;20574;-80
2021/12/05 11:50:18;;;;;;;115.25;103.85;;;6.00;98.80;;;;;;5053473;28;20041;-77
2021/12/05 11:52:47;;;;;;;115.90;104.65;;;6.00;98.80;;;;;;5054926;28;20060;-75
2021/12/05 11:55:22;;;;;;;118.22;106.65;;;6.10;98.90;;;;;;5052399;28;20056;-77
2021/12/05 11:57:51;;;;;;;115.00;103.80;;;6.10;99.00;;;;;;5051483;28;20054;-77
2021/12/05 12:00:20;;;;;;;115.57;104.28;;;6.20;99.00;;;;;;5052742;28;20539;-76
2021/12/05 12:02:50;;;;;;;114.68;103.40;;;6.30;99.00;;;;;;5053074;28;20049;-75
2021/12/05 12:05:20;;;;;;;116.65;105.22;;;6.40;99.10;;;;;;5053809;28;20516;-75
2021/12/05 12:07:51;;;;;;;115.18;103.82;;;6.40;99.00;;;;;;5052424;28;20050;-75
2021/12/05 12:10:24;;;;;;;117.50;106.32;;;6.40;98.90;;;;;;5052789;28;20073;-77
2021/12/05 12:12:54;;;;;;;116.05;104.63;;;6.40;98.80;;;;;;5054707;28;20050;-77
2021/12/05 12:15:23;;;;;;;115.38;104.38;;;6.50;98.80;;;;;;5053011;28;20064;-78
2021/12/05 12:17:51;;;;;;;116.00;104.80;;;6.50;98.90;;;;;;5052418;28;20049;-77
2021/12/05 12:20:23;;;;;;;116.50;105.22;;;6.50;98.80;;;;;;5052391;28;20041;-77
2021/12/05 12:22:51;;;;;;;115.45;104.45;;;6.60;98.90;;;;;;5052443;28;20049;-77
2021/12/05 12:25:21;;;;;;;117.05;105.75;;;6.60;98.90;;;;;;5052548;28;20054;-77
2021/12/05 12:27:50;;;;;;;115.65;104.32;;;6.60;98.70;;;;;;5052876;28;20077;-77
2021/12/05 12:30:24;;;;;;;113.60;102.68;;;6.70;98.80;;;;;;5052333;28;20045;-77
2021/12/05 12:32:55;;;;;;;116.90;105.88;;;6.70;98.90;;;;;;5052674;28;20117;-78
2021/12/05 12:35:28;;;;;;;114.93;103.93;;;6.80;98.90;;;;;;5052673;28;20054;-76
2021/12/05 12:37:58;;;;;;;115.18;104.25;;;6.80;98.80;;;;;;5053167;28;20107;-76
2021/12/05 12:40:41;;;;;;;115.97;104.97;;;6.80;98.80;;;;;;5054676;28;20053;-77
2021/12/05 12:43:30;;;;;;;115.13;104.22;;;6.80;98.70;;;;;;5053370;28;20053;-76
2021/12/05 12:45:57;;;;;;;115.80;104.72;;;6.90;98.60;;;;;;5052787;28;20080;-76
2021/12/05 12:48:28;;;;;;;114.72;104.03;;;6.90;98.60;;;;;;5053151;28;20084;-76
2021/12/05 12:50:57;;;;;;;115.78;104.68;;;6.90;98.70;;;;;;5036746;28;20140;-77
2021/12/05 12:53:28;;;;;;;115.85;104.93;;;6.90;98.70;;;;;;5052285;28;20132;-77
2021/12/05 12:55:58;;;;;;;115.93;105.00;;;6.90;98.50;;;;;;5052906;28;20056;-76
2021/12/05 12:58:39;;;;;;;115.15;104.35;;;6.90;98.40;;;;;;5052452;28;20053;-77
2021/12/05 13:01:19;;;;;;;115.38;104.63;;;6.90;98.50;;;;;;5052683;28;20534;-76
2021/12/05 13:04:30;;;;;;;114.85;104.15;;;7.00;98.50;;;;;;5054149;28;20139;-76
2021/12/05 13:07:22;;;;;;;114.60;103.57;;;7.00;98.40;;;;;;5050375;28;20076;-79
2021/12/05 13:10:04;;;;;;;114.97;104.18;;;7.00;98.50;;;;;;5051339;28;20053;-77
2021/12/05 13:12:53;;;;;;;116.03;105.35;;;7.00;98.50;;;;;;5048207;28;20196;-76
2021/12/05 13:15:26;;;;;;;116.72;105.82;;;7.00;98.40;;;;;;5049053;28;20045;-78
2021/12/05 13:17:56;;;;;;;116.13;105.15;;;7.10;98.40;;;;;;5054647;28;20057;-75
2021/12/05 13:20:28;;;;;;;114.75;103.97;;;7.00;98.10;;;;;;5050661;28;20060;-76
2021/12/05 13:23:08;;;;;;;114.32;103.40;;;7.00;98.20;;;;;;5052148;28;20147;-78
2021/12/05 13:26:02;;;;;;;114.22;103.13;;;7.00;98.10;;;;;;5053120;28;20131;-77
2021/12/05 13:28:34;;;;;;;114.47;103.95;;;7.00;98.20;;;;;;5052061;28;20049;-77
2021/12/05 13:31:46;;;;;;;114.50;103.82;;;7.00;98.30;;;;;;5050320;28;20777;-76
2021/12/05 13:34:50;;;;;;;112.85;102.05;;;7.10;98.20;;;;;;5043478;28;20061;-80
2021/12/05 13:37:24;;;;;;;113.20;102.50;;;7.10;98.10;;;;;;5018747;28;20053;-77
2021/12/05 13:39:55;;;;;;;115.32;104.55;;;7.00;98.00;;;;;;5052776;28;20144;-77
2021/12/05 13:42:24;;;;;;;112.57;102.18;;;7.10;98.10;;;;;;5052377;28;20053;-80
2021/12/05 13:45:08;;;;;;;113.53;102.93;;;7.00;97.90;;;;;;5034888;28;20049;-79
2021/12/05 13:47:39;;;;;;;114.55;103.95;;;7.00;97.90;;;;;;5053669;28;20049;-78
2021/12/05 13:50:28;;;;;;;113.60;102.82;;;7.00;97.90;;;;;;5052585;28;20054;-81
2021/12/05 13:52:58;;;;;;;115.40;104.65;;;7.10;97.90;;;;;;5052380;28;20053;-80
2021/12/05 13:55:39;;;;;;;114.68;104.15;;;7.00;97.70;;;;;;5049891;28;20038;-80
2021/12/05 13:58:26;;;;;;;115.32;104.38;;;7.00;97.70;;;;;;5055384;28;20668;-80
2021/12/05 14:00:59;;;;;;;116.07;105.18;;;7.00;97.80;;;;;;4980542;28;23918;-80
2021/12/05 14:04:01;;;;;;;115.60;104.88;;;7.00;97.80;;;;;;4992841;28;20510;-78
2021/12/05 14:06:47;;;;;;;116.78;105.82;;;7.10;97.90;;;;;;5053640;28;20148;-80
2021/12/05 14:09:17;;;;;;;116.13;105.07;;;7.10;97.90;;;;;;5043525;28;20064;-80
2021/12/05 14:11:49;;;;;;;115.72;105.00;;;7.10;97.80;;;;;;5046318;28;20049;-80
2021/12/05 14:14:18;;;;;;;117.30;106.32;;;7.00;97.60;;;;;;4982034;28;20105;-80
2021/12/05 14:16:48;;;;;;;114.13;103.53;;;7.10;97.80;;;;;;5049872;28;20695;-81
2021/12/05 14:19:19;;;;;;;114.65;104.00;;;7.10;97.70;;;;;;5034092;28;20053;-81
2021/12/05 14:21:49;;;;;;;114.63;104.10;;;7.00;97.60;;;;;;5052639;28;20135;-82
2021/12/05 14:24:18;;;;;;;116.20;105.35;;;7.00;97.50;;;;;;5049714;28;20049;-78
2021/12/05 14:26:48;;;;;;;115.50;104.93;;;7.00;97.50;;;;;;5051581;28;20058;-80
2021/12/05 14:29:18;;;;;;;115.68;104.88;;;6.90;97.60;;;;;;5064274;28;20052;-76
2021/12/05 14:31:49;;;;;;;113.68;103.18;;;6.90;97.60;;;;;;5074703;28;20057;-77
2021/12/05 14:34:17;;;;;;;114.70;103.75;;;6.90;97.60;;;;;;5049187;28;20081;-77
2021/12/05 14:36:49;;;;;;;114.93;104.30;;;6.90;97.60;;;;;;5041094;28;20132;-77
2021/12/05 14:39:23;;;;;;;113.90;103.20;;;6.90;97.60;;;;;;5054388;28;20058;-77
2021/12/05 14:41:53;;;;;;;114.80;104.10;;;6.90;97.60;;;;;;5058133;28;20815;-78
2021/12/05 14:44:21;;;;;;;114.10;103.20;;;6.90;97.60;;;;;;5054769;28;20499;-77
2021/12/05 14:46:59;;;;;;;114.40;103.82;;;7.00;97.60;;;;;;5038167;28;20057;-76
2021/12/05 14:49:29;;;;;;;115.93;105.22;;;7.00;97.60;;;;;;5069589;28;20140;-76
2021/12/05 14:51:59;;;;;;;115.78;104.50;;;7.00;97.60;;;;;;5064044;28;20077;-77
2021/12/05 14:54:30;;;;;;;115.35;104.63;;;7.00;97.50;;;;;;5054606;28;20080;-77
2021/12/05 14:56:58;;;;;;;116.18;105.32;;;7.00;97.50;;;;;;5054246;28;20073;-76
2021/12/05 14:59:25;;;;;;;116.15;105.55;;;7.00;97.50;;;;;;5071070;28;20507;-77
2021/12/05 15:01:57;;;;;;;115.25;104.40;;;7.00;97.40;;;;;;5054636;28;20073;-80
2021/12/05 15:04:30;;;;;;;114.78;104.28;;;6.90;97.30;;;;;;5069962;28;20511;-80
2021/12/05 15:06:59;;;;;;;113.38;102.78;;;6.90;97.40;;;;;;5065589;28;20064;-80
2021/12/05 15:09:32;;;;;;;114.30;103.65;;;6.90;97.40;;;;;;5057946;28;20061;-79
2021/12/05 15:12:02;;;;;;;116.05;105.38;;;6.90;97.30;;;;;;5064224;28;20132;-79
2021/12/05 15:14:32;;;;;;;114.18;103.68;;;6.90;97.30;;;;;;5057809;28;20111;-79
2021/12/05 15:17:06;;;;;;;114.13;103.40;;;6.80;97.20;;;;;;5052717;28;20053;-79
2021/12/05 15:19:37;;;;;;;114.55;103.93;;;6.80;97.10;;;;;;5057159;28;20556;-78
2021/12/05 15:22:06;;;;;;;115.30;104.60;;;6.80;97.30;;;;;;5067222;28;20128;-77
2021/12/05 15:24:33;;;;;;;116.80;106.05;;;6.80;97.30;;;;;;5051996;28;20128;-78
2021/12/05 15:27:02;;;;;;;116.40;105.38;;;6.80;97.40;;;;;;5052391;28;20054;-79
2021/12/05 15:29:30;;;;;;;114.95;104.38;;;6.80;97.40;;;;;;5054247;28;20423;-79
2021/12/05 15:31:58;;;;;;;114.50;103.80;;;6.90;97.40;;;;;;5054254;28;20053;-80
2021/12/05 15:34:29;;;;;;;115.93;104.90;;;6.90;97.40;;;;;;5037600;28;20107;-79
2021/12/05 15:37:01;;;;;;;114.72;103.93;;;6.90;97.30;;;;;;5054226;28;20489;-79
2021/12/05 15:39:30;;;;;;;115.00;104.13;;;6.90;97.30;;;;;;5053266;28;20504;-79
2021/12/05 15:41:59;;;;;;;116.05;105.32;;;7.00;97.30;;;;;;5053169;28;20045;-78
2021/12/05 15:44:30;;;;;;;118.55;107.28;;;7.00;97.40;;;;;;5053323;28;20499;-77
2021/12/05 15:47:03;;;;;;;115.65;104.85;;;7.00;97.20;;;;;;5055650;28;20143;-78
2021/12/05 15:49:42;;;;;;;116.70;105.72;;;7.00;97.10;;;;;;5036016;28;20080;-78
2021/12/05 15:52:09;;;;;;;115.18;104.53;;;7.00;97.10;;;;;;5054258;28;20053;-77
2021/12/05 15:54:39;;;;;;;116.22;105.22;;;7.00;97.10;;;;;;5056701;28;20063;-79
2021/12/05 15:57:13;;;;;;;115.07;104.32;;;7.00;97.10;;;;;;5044191;28;20160;-77
2021/12/05 15:59:43;;;;;;;115.85;105.15;;;7.00;97.10;;;;;;5057452;28;21026;-77
2021/12/05 16:02:11;;;;;;;117.85;106.95;;;7.00;97.10;;;;;;5050035;28;20029;-79
2021/12/05 16:04:40;;;;;;;115.38;104.80;;;7.00;97.10;;;;;;5043323;28;20050;-81
2021/12/05 16:07:10;;;;;;;117.45;106.55;;;7.00;97.10;;;;;;5030341;28;20057;-78
2021/12/05 16:09:40;;;;;;;114.97;104.25;;;7.00;97.10;;;;;;5056965;28;20046;-77
2021/12/05 16:12:10;;;;;;;114.00;103.60;;;7.00;97.10;;;;;;5038255;28;20132;-77
2021/12/05 16:14:39;;;;;;;114.32;103.63;;;7.00;97.10;;;;;;5058092;28;20057;-76
2021/12/05 16:17:22;;;;;;;116.35;105.60;;;7.00;97.10;;;;;;5065290;28;20514;-76
2021/12/05 16:20:14;;;;;;;115.55;104.88;;;7.00;97.10;;;;;;5067893;28;20128;-79
2021/12/05 16:23:15;;;;;;;116.03;105.22;;;7.00;97.10;;;;;;5051741;28;20079;-77
2021/12/05 16:25:59;;;;;;;113.88;103.38;;;7.00;97.10;;;;;;5041994;28;20112;-75
2021/12/05 16:28:31;;;;;;;115.72;105.03;;;7.00;97.10;;;;;;5044715;28;20045;-82
2021/12/05 16:31:02;;;;;;;115.18;104.57;;;7.10;97.10;;;;;;5043255;28;20089;-78
2021/12/05 16:33:31;;;;;;;116.50;105.70;;;7.10;97.10;;;;;;5041790;28;20057;-77
2021/12/05 16:36:03;;;;;;;114.43;103.82;;;7.10;97.10;;;;;;5038477;28;20137;-78
2021/12/05 16:38:34;;;;;;;115.53;104.82;;;7.10;97.10;;;;;;5047042;28;20053;-80
2021/12/05 16:41:13;;;;;;;115.50;105.00;;;7.10;97.10;;;;;;5054136;28;20057;-79
2021/12/05 16:43:52;;;;;;;116.60;105.80;;;7.10;97.00;;;;;;5042571;28;20046;-77
2021/12/05 16:46:24;;;;;;;114.28;103.68;;;7.10;97.10;;;;;;5061120;28;20061;-76
2021/12/05 16:48:53;;;;;;;117.18;106.38;;;7.10;97.00;;;;;;5039069;28;20054;-81
2021/12/05 16:51:25;;;;;;;114.40;103.70;;;7.10;97.00;;;;;;5039934;28;20073;-79